sensor_id;sensor_type;location;lat;lon;timestamp;P1;durP1;ratioP1;P2;durP2;ratioP2
34136;SDS011;20414;50.860;4.382;2022-07-09T00:01:05;0.50;;;0.20;;
34136;SDS011;20414;50.860;4.382;2022-07-09T00:03:31;0.30;;;0.30;;
34136;SDS011;20414;50.860;4.382;2022-07-09T00:05:57;0.38;;;0.20;;
34136;SDS011;20414;50.860;4.382;2022-07-09T00:08:22;0.20;;;0.20;;
34136;SDS011;20414;50.860;4.382;2022-07-09T00:10:48;0.20;;;0.20;;
34136;SDS011;20414;50.860;4.382;2022-07-09T00:13:14;0.35;;;0.30;;
34136;SDS011;20414;50.860;4.382;2022-07-09T00:15:40;0.20;;;0.20;;
34136;SDS011;20414;50.860;4.382;2022-07-09T00:18:07;0.10;;;0.10;;
34136;SDS011;20414;50.860;4.382;2022-07-09T00:20:33;0.20;;;0.20;;
34136;SDS011;20414;50.860;4.382;2022-07-09T00:22:59;0.40;;;0.35;;
34136;SDS011;20414;50.860;4.382;2022-07-09T00:25:24;0.45;;;0.20;;
34136;SDS011;20414;50.860;4.382;2022-07-09T00:27:50;0.50;;;0.25;;
34136;SDS011;20414;50.860;4.382;2022-07-09T00:30:16;0.20;;;0.20;;
34136;SDS011;20414;50.860;4.382;2022-07-09T00:32:42;0.40;;;0.20;;
34136;SDS011;20414;50.860;4.382;2022-07-09T00:35:07;0.40;;;0.30;;
34136;SDS011;20414;50.860;4.382;2022-07-09T00:37:33;0.38;;;0.20;;
34136;SDS011;20414;50.860;4.382;2022-07-09T00:39:59;0.20;;;0.20;;
34136;SDS011;20414;50.860;4.382;2022-07-09T00:42:25;0.40;;;0.30;;
34136;SDS011;20414;50.860;4.382;2022-07-09T00:44:51;0.60;;;0.30;;
34136;SDS011;20414;50.860;4.382;2022-07-09T00:47:16;0.57;;;0.32;;
34136;SDS011;20414;50.860;4.382;2022-07-09T00:49:42;0.28;;;0.28;;
34136;SDS011;20414;50.860;4.382;2022-07-09T00:52:12;0.28;;;0.20;;
34136;SDS011;20414;50.860;4.382;2022-07-09T00:54:39;0.30;;;0.30;;
34136;SDS011;20414;50.860;4.382;2022-07-09T00:57:07;0.22;;;0.20;;
34136;SDS011;20414;50.860;4.382;2022-07-09T00:59:34;0.40;;;0.40;;
34136;SDS011;20414;50.860;4.382;2022-07-09T01:02:04;0.25;;;0.25;;
34136;SDS011;20414;50.860;4.382;2022-07-09T01:04:39;0.50;;;0.30;;
34136;SDS011;20414;50.860;4.382;2022-07-09T01:07:05;0.30;;;0.30;;
34136;SDS011;20414;50.860;4.382;2022-07-09T01:09:30;0.20;;;0.20;;
34136;SDS011;20414;50.860;4.382;2022-07-09T01:11:57;0.32;;;0.30;;
34136;SDS011;20414;50.860;4.382;2022-07-09T01:14:23;0.30;;;0.30;;
34136;SDS011;20414;50.860;4.382;2022-07-09T01:16:56;0.57;;;0.28;;
34136;SDS011;20414;50.860;4.382;2022-07-09T01:19:24;0.80;;;0.35;;
34136;SDS011;20414;50.860;4.382;2022-07-09T01:21:49;0.20;;;0.20;;
34136;SDS011;20414;50.860;4.382;2022-07-09T01:24:16;0.30;;;0.30;;
34136;SDS011;20414;50.860;4.382;2022-07-09T01:26:42;0.70;;;0.30;;
34136;SDS011;20414;50.860;4.382;2022-07-09T01:29:08;0.32;;;0.30;;
34136;SDS011;20414;50.860;4.382;2022-07-09T01:31:33;0.20;;;0.20;;
34136;SDS011;20414;50.860;4.382;2022-07-09T01:34:01;0.30;;;0.20;;
34136;SDS011;20414;50.860;4.382;2022-07-09T01:36:29;0.45;;;0.28;;
34136;SDS011;20414;50.860;4.382;2022-07-09T01:38:55;0.30;;;0.30;;
34136;SDS011;20414;50.860;4.382;2022-07-09T01:41:21;0.30;;;0.30;;
34136;SDS011;20414;50.860;4.382;2022-07-09T01:43:49;0.45;;;0.30;;
34136;SDS011;20414;50.860;4.382;2022-07-09T01:48:45;0.35;;;0.30;;
34136;SDS011;20414;50.860;4.382;2022-07-09T01:51:14;0.47;;;0.32;;
34136;SDS011;20414;50.860;4.382;2022-07-09T01:53:40;0.35;;;0.30;;
34136;SDS011;20414;50.860;4.382;2022-07-09T01:56:08;0.45;;;0.30;;
34136;SDS011;20414;50.860;4.382;2022-07-09T01:58:34;0.40;;;0.20;;
34136;SDS011;20414;50.860;4.382;2022-07-09T02:01:00;0.50;;;0.30;;
34136;SDS011;20414;50.860;4.382;2022-07-09T02:03:26;0.43;;;0.30;;
34136;SDS011;20414;50.860;4.382;2022-07-09T02:05:52;0.70;;;0.20;;
34136;SDS011;20414;50.860;4.382;2022-07-09T02:08:18;0.50;;;0.50;;
34136;SDS011;20414;50.860;4.382;2022-07-09T02:10:44;0.20;;;0.10;;
34136;SDS011;20414;50.860;4.382;2022-07-09T02:13:11;0.65;;;0.30;;
34136;SDS011;20414;50.860;4.382;2022-07-09T02:15:38;0.32;;;0.30;;
34136;SDS011;20414;50.860;4.382;2022-07-09T02:18:04;0.22;;;0.22;;
34136;SDS011;20414;50.860;4.382;2022-07-09T02:20:30;0.40;;;0.30;;
34136;SDS011;20414;50.860;4.382;2022-07-09T02:22:55;0.30;;;0.20;;
34136;SDS011;20414;50.860;4.382;2022-07-09T02:25:24;0.75;;;0.40;;
34136;SDS011;20414;50.860;4.382;2022-07-09T02:27:50;0.35;;;0.32;;
34136;SDS011;20414;50.860;4.382;2022-07-09T02:30:16;0.68;;;0.45;;
34136;SDS011;20414;50.860;4.382;2022-07-09T02:32:42;0.60;;;0.30;;
34136;SDS011;20414;50.860;4.382;2022-07-09T02:35:08;0.32;;;0.30;;
34136;SDS011;20414;50.860;4.382;2022-07-09T02:37:33;0.70;;;0.30;;
34136;SDS011;20414;50.860;4.382;2022-07-09T02:40:03;0.23;;;0.23;;
34136;SDS011;20414;50.860;4.382;2022-07-09T02:42:29;0.52;;;0.40;;
34136;SDS011;20414;50.860;4.382;2022-07-09T02:44:55;0.30;;;0.30;;
34136;SDS011;20414;50.860;4.382;2022-07-09T02:47:21;0.30;;;0.30;;
34136;SDS011;20414;50.860;4.382;2022-07-09T02:49:47;0.40;;;0.40;;
34136;SDS011;20414;50.860;4.382;2022-07-09T02:52:12;0.40;;;0.32;;
34136;SDS011;20414;50.860;4.382;2022-07-09T02:54:39;0.20;;;0.20;;
34136;SDS011;20414;50.860;4.382;2022-07-09T02:57:05;0.30;;;0.30;;
34136;SDS011;20414;50.860;4.382;2022-07-09T02:59:31;0.50;;;0.30;;
34136;SDS011;20414;50.860;4.382;2022-07-09T03:01:57;0.50;;;0.38;;
34136;SDS011;20414;50.860;4.382;2022-07-09T03:04:26;0.20;;;0.20;;
34136;SDS011;20414;50.860;4.382;2022-07-09T03:06:54;0.40;;;0.38;;
34136;SDS011;20414;50.860;4.382;2022-07-09T03:09:20;0.38;;;0.30;;
34136;SDS011;20414;50.860;4.382;2022-07-09T03:11:46;0.52;;;0.50;;
34136;SDS011;20414;50.860;4.382;2022-07-09T03:14:12;0.30;;;0.30;;
34136;SDS011;20414;50.860;4.382;2022-07-09T03:16:38;1.38;;;0.50;;
34136;SDS011;20414;50.860;4.382;2022-07-09T03:19:03;0.38;;;0.30;;
34136;SDS011;20414;50.860;4.382;2022-07-09T03:21:30;0.32;;;0.32;;
34136;SDS011;20414;50.860;4.382;2022-07-09T03:23:55;1.10;;;0.40;;
34136;SDS011;20414;50.860;4.382;2022-07-09T03:26:21;0.40;;;0.38;;
34136;SDS011;20414;50.860;4.382;2022-07-09T03:28:48;0.40;;;0.40;;
34136;SDS011;20414;50.860;4.382;2022-07-09T03:31:17;0.40;;;0.40;;
34136;SDS011;20414;50.860;4.382;2022-07-09T03:33:43;0.32;;;0.30;;
34136;SDS011;20414;50.860;4.382;2022-07-09T03:36:08;0.73;;;0.40;;
34136;SDS011;20414;50.860;4.382;2022-07-09T03:38:34;0.55;;;0.40;;
34136;SDS011;20414;50.860;4.382;2022-07-09T03:41:00;0.45;;;0.40;;
34136;SDS011;20414;50.860;4.382;2022-07-09T03:43:26;0.45;;;0.40;;
34136;SDS011;20414;50.860;4.382;2022-07-09T03:45:52;0.20;;;0.20;;
34136;SDS011;20414;50.860;4.382;2022-07-09T03:48:17;0.57;;;0.30;;
34136;SDS011;20414;50.860;4.382;2022-07-09T03:50:43;0.60;;;0.40;;
34136;SDS011;20414;50.860;4.382;2022-07-09T03:53:09;0.20;;;0.20;;
34136;SDS011;20414;50.860;4.382;2022-07-09T03:55:35;0.40;;;0.30;;
34136;SDS011;20414;50.860;4.382;2022-07-09T03:58:00;0.88;;;0.30;;
34136;SDS011;20414;50.860;4.382;2022-07-09T04:00:27;0.40;;;0.40;;
34136;SDS011;20414;50.860;4.382;2022-07-09T04:02:53;1.40;;;0.40;;
34136;SDS011;20414;50.860;4.382;2022-07-09T04:05:19;0.45;;;0.43;;
34136;SDS011;20414;50.860;4.382;2022-07-09T04:07:45;0.68;;;0.30;;
34136;SDS011;20414;50.860;4.382;2022-07-09T04:10:11;0.50;;;0.40;;
34136;SDS011;20414;50.860;4.382;2022-07-09T04:12:37;0.68;;;0.50;;
34136;SDS011;20414;50.860;4.382;2022-07-09T04:15:03;0.50;;;0.30;;
34136;SDS011;20414;50.860;4.382;2022-07-09T04:17:29;0.40;;;0.40;;
34136;SDS011;20414;50.860;4.382;2022-07-09T04:19:55;0.40;;;0.32;;
34136;SDS011;20414;50.860;4.382;2022-07-09T04:22:21;0.43;;;0.30;;
34136;SDS011;20414;50.860;4.382;2022-07-09T04:24:47;0.20;;;0.20;;
34136;SDS011;20414;50.860;4.382;2022-07-09T04:27:12;0.88;;;0.38;;
34136;SDS011;20414;50.860;4.382;2022-07-09T04:29:38;0.20;;;0.20;;
34136;SDS011;20414;50.860;4.382;2022-07-09T04:32:07;1.58;;;0.40;;
34136;SDS011;20414;50.860;4.382;2022-07-09T04:34:33;0.30;;;0.30;;
34136;SDS011;20414;50.860;4.382;2022-07-09T04:36:58;0.40;;;0.40;;
34136;SDS011;20414;50.860;4.382;2022-07-09T04:39:24;0.35;;;0.35;;
34136;SDS011;20414;50.860;4.382;2022-07-09T04:41:50;0.70;;;0.30;;
34136;SDS011;20414;50.860;4.382;2022-07-09T04:44:16;0.77;;;0.40;;
34136;SDS011;20414;50.860;4.382;2022-07-09T04:46:42;0.40;;;0.40;;
34136;SDS011;20414;50.860;4.382;2022-07-09T04:49:11;0.20;;;0.20;;
34136;SDS011;20414;50.860;4.382;2022-07-09T04:51:37;0.30;;;0.30;;
34136;SDS011;20414;50.860;4.382;2022-07-09T04:54:08;0.97;;;0.50;;
34136;SDS011;20414;50.860;4.382;2022-07-09T04:56:37;0.30;;;0.30;;
34136;SDS011;20414;50.860;4.382;2022-07-09T04:59:03;0.50;;;0.40;;
34136;SDS011;20414;50.860;4.382;2022-07-09T05:01:29;0.32;;;0.32;;
34136;SDS011;20414;50.860;4.382;2022-07-09T05:03:55;0.60;;;0.40;;
34136;SDS011;20414;50.860;4.382;2022-07-09T05:06:23;0.40;;;0.40;;
34136;SDS011;20414;50.860;4.382;2022-07-09T05:08:49;0.60;;;0.28;;
34136;SDS011;20414;50.860;4.382;2022-07-09T05:11:15;0.40;;;0.38;;
34136;SDS011;20414;50.860;4.382;2022-07-09T05:13:41;0.20;;;0.20;;
34136;SDS011;20414;50.860;4.382;2022-07-09T05:16:11;1.08;;;0.30;;
34136;SDS011;20414;50.860;4.382;2022-07-09T05:18:37;0.40;;;0.40;;
34136;SDS011;20414;50.860;4.382;2022-07-09T05:21:03;0.43;;;0.40;;
34136;SDS011;20414;50.860;4.382;2022-07-09T05:23:29;0.55;;;0.40;;
34136;SDS011;20414;50.860;4.382;2022-07-09T05:25:54;0.40;;;0.40;;
34136;SDS011;20414;50.860;4.382;2022-07-09T05:28:20;0.45;;;0.38;;
34136;SDS011;20414;50.860;4.382;2022-07-09T05:30:46;0.60;;;0.60;;
34136;SDS011;20414;50.860;4.382;2022-07-09T05:33:12;0.43;;;0.40;;
34136;SDS011;20414;50.860;4.382;2022-07-09T05:35:37;0.30;;;0.30;;
34136;SDS011;20414;50.860;4.382;2022-07-09T05:38:06;0.63;;;0.32;;
34136;SDS011;20414;50.860;4.382;2022-07-09T05:40:32;0.30;;;0.30;;
34136;SDS011;20414;50.860;4.382;2022-07-09T05:42:58;0.30;;;0.30;;
34136;SDS011;20414;50.860;4.382;2022-07-09T05:45:23;0.80;;;0.50;;
34136;SDS011;20414;50.860;4.382;2022-07-09T05:47:49;0.75;;;0.38;;
34136;SDS011;20414;50.860;4.382;2022-07-09T05:50:15;0.40;;;0.40;;
34136;SDS011;20414;50.860;4.382;2022-07-09T05:52:41;0.40;;;0.28;;
34136;SDS011;20414;50.860;4.382;2022-07-09T05:55:10;0.43;;;0.43;;
34136;SDS011;20414;50.860;4.382;2022-07-09T05:57:39;0.32;;;0.32;;
34136;SDS011;20414;50.860;4.382;2022-07-09T06:00:05;0.47;;;0.40;;
34136;SDS011;20414;50.860;4.382;2022-07-09T06:02:32;0.50;;;0.40;;
34136;SDS011;20414;50.860;4.382;2022-07-09T06:04:58;0.40;;;0.40;;
34136;SDS011;20414;50.860;4.382;2022-07-09T06:07:24;0.40;;;0.30;;
34136;SDS011;20414;50.860;4.382;2022-07-09T06:09:50;0.60;;;0.40;;
34136;SDS011;20414;50.860;4.382;2022-07-09T06:12:15;0.38;;;0.30;;
34136;SDS011;20414;50.860;4.382;2022-07-09T06:14:41;0.50;;;0.30;;
34136;SDS011;20414;50.860;4.382;2022-07-09T06:17:07;0.40;;;0.30;;
34136;SDS011;20414;50.860;4.382;2022-07-09T06:19:36;0.52;;;0.50;;
34136;SDS011;20414;50.860;4.382;2022-07-09T06:22:02;0.85;;;0.40;;
34136;SDS011;20414;50.860;4.382;2022-07-09T06:24:29;0.60;;;0.40;;
34136;SDS011;20414;50.860;4.382;2022-07-09T06:26:55;0.60;;;0.50;;
34136;SDS011;20414;50.860;4.382;2022-07-09T06:29:21;0.43;;;0.40;;
34136;SDS011;20414;50.860;4.382;2022-07-09T06:31:49;0.40;;;0.30;;
34136;SDS011;20414;50.860;4.382;2022-07-09T06:34:14;0.28;;;0.28;;
34136;SDS011;20414;50.860;4.382;2022-07-09T06:36:40;0.40;;;0.40;;
34136;SDS011;20414;50.860;4.382;2022-07-09T06:39:09;0.60;;;0.50;;
34136;SDS011;20414;50.860;4.382;2022-07-09T06:41:54;0.35;;;0.35;;
34136;SDS011;20414;50.860;4.382;2022-07-09T06:44:28;0.50;;;0.40;;
34136;SDS011;20414;50.860;4.382;2022-07-09T06:46:53;0.63;;;0.50;;
34136;SDS011;20414;50.860;4.382;2022-07-09T06:49:19;0.40;;;0.40;;
34136;SDS011;20414;50.860;4.382;2022-07-09T06:51:45;0.93;;;0.30;;
34136;SDS011;20414;50.860;4.382;2022-07-09T06:54:12;0.40;;;0.40;;
34136;SDS011;20414;50.860;4.382;2022-07-09T06:56:37;0.75;;;0.40;;
34136;SDS011;20414;50.860;4.382;2022-07-09T06:59:03;0.40;;;0.40;;
34136;SDS011;20414;50.860;4.382;2022-07-09T07:01:29;0.98;;;0.60;;
34136;SDS011;20414;50.860;4.382;2022-07-09T07:03:54;0.60;;;0.40;;
34136;SDS011;20414;50.860;4.382;2022-07-09T07:06:20;0.40;;;0.40;;
34136;SDS011;20414;50.860;4.382;2022-07-09T07:08:46;0.68;;;0.50;;
34136;SDS011;20414;50.860;4.382;2022-07-09T07:11:12;0.40;;;0.40;;
34136;SDS011;20414;50.860;4.382;2022-07-09T07:13:37;0.68;;;0.45;;
34136;SDS011;20414;50.860;4.382;2022-07-09T07:16:03;0.50;;;0.40;;
34136;SDS011;20414;50.860;4.382;2022-07-09T07:18:29;0.40;;;0.40;;
34136;SDS011;20414;50.860;4.382;2022-07-09T07:20:55;0.40;;;0.40;;
34136;SDS011;20414;50.860;4.382;2022-07-09T07:23:21;0.60;;;0.30;;
34136;SDS011;20414;50.860;4.382;2022-07-09T07:25:47;0.40;;;0.30;;
34136;SDS011;20414;50.860;4.382;2022-07-09T07:28:13;0.35;;;0.35;;
34136;SDS011;20414;50.860;4.382;2022-07-09T07:30:39;0.30;;;0.30;;
34136;SDS011;20414;50.860;4.382;2022-07-09T07:33:04;0.68;;;0.43;;
34136;SDS011;20414;50.860;4.382;2022-07-09T07:35:30;0.50;;;0.50;;
34136;SDS011;20414;50.860;4.382;2022-07-09T07:37:56;0.50;;;0.47;;
34136;SDS011;20414;50.860;4.382;2022-07-09T07:40:23;0.32;;;0.32;;
34136;SDS011;20414;50.860;4.382;2022-07-09T07:42:52;0.95;;;0.40;;
34136;SDS011;20414;50.860;4.382;2022-07-09T07:45:17;0.60;;;0.40;;
34136;SDS011;20414;50.860;4.382;2022-07-09T07:47:43;0.43;;;0.40;;
34136;SDS011;20414;50.860;4.382;2022-07-09T07:50:09;0.73;;;0.50;;
34136;SDS011;20414;50.860;4.382;2022-07-09T07:52:34;0.88;;;0.38;;
34136;SDS011;20414;50.860;4.382;2022-07-09T07:55:00;0.32;;;0.30;;
34136;SDS011;20414;50.860;4.382;2022-07-09T07:57:26;0.43;;;0.43;;
34136;SDS011;20414;50.860;4.382;2022-07-09T07:59:51;0.40;;;0.40;;
34136;SDS011;20414;50.860;4.382;2022-07-09T08:02:17;0.40;;;0.40;;
34136;SDS011;20414;50.860;4.382;2022-07-09T08:04:43;0.40;;;0.40;;
34136;SDS011;20414;50.860;4.382;2022-07-09T08:07:09;0.40;;;0.40;;
34136;SDS011;20414;50.860;4.382;2022-07-09T08:09:34;0.38;;;0.38;;
34136;SDS011;20414;50.860;4.382;2022-07-09T08:12:00;0.40;;;0.40;;
34136;SDS011;20414;50.860;4.382;2022-07-09T08:14:26;0.80;;;0.50;;
34136;SDS011;20414;50.860;4.382;2022-07-09T08:16:52;0.43;;;0.40;;
34136;SDS011;20414;50.860;4.382;2022-07-09T08:19:18;0.60;;;0.43;;
34136;SDS011;20414;50.860;4.382;2022-07-09T08:21:43;0.60;;;0.40;;
34136;SDS011;20414;50.860;4.382;2022-07-09T08:24:09;0.90;;;0.40;;
34136;SDS011;20414;50.860;4.382;2022-07-09T08:26:35;0.73;;;0.40;;
34136;SDS011;20414;50.860;4.382;2022-07-09T08:29:00;0.43;;;0.30;;
34136;SDS011;20414;50.860;4.382;2022-07-09T08:31:26;0.40;;;0.40;;
34136;SDS011;20414;50.860;4.382;2022-07-09T08:33:52;0.40;;;0.40;;
34136;SDS011;20414;50.860;4.382;2022-07-09T08:36:18;0.35;;;0.30;;
34136;SDS011;20414;50.860;4.382;2022-07-09T08:38:44;0.40;;;0.40;;
34136;SDS011;20414;50.860;4.382;2022-07-09T08:41:12;0.30;;;0.30;;
34136;SDS011;20414;50.860;4.382;2022-07-09T08:43:38;0.85;;;0.43;;
34136;SDS011;20414;50.860;4.382;2022-07-09T08:46:04;0.47;;;0.40;;
34136;SDS011;20414;50.860;4.382;2022-07-09T08:48:34;0.43;;;0.40;;
34136;SDS011;20414;50.860;4.382;2022-07-09T08:51:01;0.50;;;0.40;;
34136;SDS011;20414;50.860;4.382;2022-07-09T08:53:28;0.82;;;0.40;;
34136;SDS011;20414;50.860;4.382;2022-07-09T08:55:55;0.40;;;0.32;;
34136;SDS011;20414;50.860;4.382;2022-07-09T08:58:22;0.35;;;0.35;;
34136;SDS011;20414;50.860;4.382;2022-07-09T09:00:56;0.77;;;0.50;;
34136;SDS011;20414;50.860;4.382;2022-07-09T09:03:23;2.15;;;0.38;;
34136;SDS011;20414;50.860;4.382;2022-07-09T09:06:02;0.50;;;0.50;;
34136;SDS011;20414;50.860;4.382;2022-07-09T09:08:34;0.85;;;0.47;;
34136;SDS011;20414;50.860;4.382;2022-07-09T09:11:04;1.20;;;0.55;;
34136;SDS011;20414;50.860;4.382;2022-07-09T09:13:31;0.30;;;0.30;;
34136;SDS011;20414;50.860;4.382;2022-07-09T09:16:05;1.23;;;0.40;;
34136;SDS011;20414;50.860;4.382;2022-07-09T09:18:35;0.65;;;0.60;;
34136;SDS011;20414;50.860;4.382;2022-07-09T09:21:04;0.80;;;0.40;;
34136;SDS011;20414;50.860;4.382;2022-07-09T09:23:44;0.60;;;0.43;;
34136;SDS011;20414;50.860;4.382;2022-07-09T09:26:22;0.68;;;0.40;;
34136;SDS011;20414;50.860;4.382;2022-07-09T09:28:51;0.65;;;0.40;;
34136;SDS011;20414;50.860;4.382;2022-07-09T09:31:38;0.63;;;0.47;;
34136;SDS011;20414;50.860;4.382;2022-07-09T09:36:37;0.60;;;0.50;;
34136;SDS011;20414;50.860;4.382;2022-07-09T09:39:10;1.55;;;0.50;;
34136;SDS011;20414;50.860;4.382;2022-07-09T09:41:44;0.63;;;0.40;;
34136;SDS011;20414;50.860;4.382;2022-07-09T09:44:20;1.77;;;0.55;;
34136;SDS011;20414;50.860;4.382;2022-07-09T09:46:49;0.40;;;0.40;;
34136;SDS011;20414;50.860;4.382;2022-07-09T09:49:15;0.50;;;0.50;;
34136;SDS011;20414;50.860;4.382;2022-07-09T09:51:49;0.40;;;0.40;;
34136;SDS011;20414;50.860;4.382;2022-07-09T09:54:24;1.10;;;0.43;;
34136;SDS011;20414;50.860;4.382;2022-07-09T09:56:50;0.73;;;0.52;;
34136;SDS011;20414;50.860;4.382;2022-07-09T09:59:16;0.40;;;0.40;;
34136;SDS011;20414;50.860;4.382;2022-07-09T10:01:43;0.80;;;0.50;;
34136;SDS011;20414;50.860;4.382;2022-07-09T10:04:11;0.50;;;0.50;;
34136;SDS011;20414;50.860;4.382;2022-07-09T10:06:38;0.80;;;0.43;;
34136;SDS011;20414;50.860;4.382;2022-07-09T10:09:10;0.80;;;0.50;;
34136;SDS011;20414;50.860;4.382;2022-07-09T10:16:51;0.50;;;0.50;;
34136;SDS011;20414;50.860;4.382;2022-07-09T10:19:27;0.45;;;0.38;;
34136;SDS011;20414;50.860;4.382;2022-07-09T10:21:55;0.50;;;0.40;;
34136;SDS011;20414;50.860;4.382;2022-07-09T10:24:26;1.55;;;0.40;;
34136;SDS011;20414;50.860;4.382;2022-07-09T10:27:01;0.65;;;0.57;;
34136;SDS011;20414;50.860;4.382;2022-07-09T10:29:32;0.50;;;0.40;;
34136;SDS011;20414;50.860;4.382;2022-07-09T10:31:58;0.40;;;0.40;;
34136;SDS011;20414;50.860;4.382;2022-07-09T10:37:16;0.85;;;0.60;;
34136;SDS011;20414;50.860;4.382;2022-07-09T10:39:53;0.88;;;0.57;;
34136;SDS011;20414;50.860;4.382;2022-07-09T10:42:20;0.80;;;0.50;;
34136;SDS011;20414;50.860;4.382;2022-07-09T10:44:49;0.40;;;0.40;;
34136;SDS011;20414;50.860;4.382;2022-07-09T10:47:16;0.70;;;0.60;;
34136;SDS011;20414;50.860;4.382;2022-07-09T10:49:42;0.70;;;0.63;;
34136;SDS011;20414;50.860;4.382;2022-07-09T10:52:08;0.68;;;0.68;;
34136;SDS011;20414;50.860;4.382;2022-07-09T10:54:34;0.45;;;0.45;;
34136;SDS011;20414;50.860;4.382;2022-07-09T10:57:11;0.57;;;0.43;;
34136;SDS011;20414;50.860;4.382;2022-07-09T10:59:46;0.82;;;0.50;;
34136;SDS011;20414;50.860;4.382;2022-07-09T11:02:21;0.70;;;0.60;;
34136;SDS011;20414;50.860;4.382;2022-07-09T11:04:48;0.75;;;0.50;;
34136;SDS011;20414;50.860;4.382;2022-07-09T11:07:22;0.73;;;0.55;;
34136;SDS011;20414;50.860;4.382;2022-07-09T11:09:49;0.95;;;0.70;;
34136;SDS011;20414;50.860;4.382;2022-07-09T11:12:16;0.60;;;0.55;;
34136;SDS011;20414;50.860;4.382;2022-07-09T11:14:50;0.70;;;0.50;;
34136;SDS011;20414;50.860;4.382;2022-07-09T11:19:43;0.60;;;0.60;;
34136;SDS011;20414;50.860;4.382;2022-07-09T11:22:09;0.75;;;0.75;;
34136;SDS011;20414;50.860;4.382;2022-07-09T11:24:35;0.88;;;0.60;;
34136;SDS011;20414;50.860;4.382;2022-07-09T11:27:04;1.08;;;0.75;;
34136;SDS011;20414;50.860;4.382;2022-07-09T11:29:31;0.68;;;0.68;;
34136;SDS011;20414;50.860;4.382;2022-07-09T11:31:57;0.80;;;0.50;;
34136;SDS011;20414;50.860;4.382;2022-07-09T11:34:24;0.70;;;0.70;;
34136;SDS011;20414;50.860;4.382;2022-07-09T11:36:50;0.73;;;0.50;;
34136;SDS011;20414;50.860;4.382;2022-07-09T11:39:24;0.88;;;0.70;;
34136;SDS011;20414;50.860;4.382;2022-07-09T11:41:52;1.10;;;0.73;;
34136;SDS011;20414;50.860;4.382;2022-07-09T11:44:22;0.80;;;0.70;;
34136;SDS011;20414;50.860;4.382;2022-07-09T11:47:09;0.68;;;0.60;;
34136;SDS011;20414;50.860;4.382;2022-07-09T11:52:03;1.05;;;0.80;;
34136;SDS011;20414;50.860;4.382;2022-07-09T11:54:41;1.00;;;0.70;;
34136;SDS011;20414;50.860;4.382;2022-07-09T11:57:22;0.80;;;0.60;;
34136;SDS011;20414;50.860;4.382;2022-07-09T11:59:48;1.00;;;0.60;;
34136;SDS011;20414;50.860;4.382;2022-07-09T12:02:23;0.60;;;0.60;;
34136;SDS011;20414;50.860;4.382;2022-07-09T12:04:49;0.77;;;0.50;;
34136;SDS011;20414;50.860;4.382;2022-07-09T12:07:15;0.95;;;0.80;;
34136;SDS011;20414;50.860;4.382;2022-07-09T12:09:40;1.00;;;0.90;;
34136;SDS011;20414;50.860;4.382;2022-07-09T12:12:07;0.80;;;0.70;;
34136;SDS011;20414;50.860;4.382;2022-07-09T12:14:33;1.33;;;0.80;;
34136;SDS011;20414;50.860;4.382;2022-07-09T12:16:59;0.57;;;0.57;;
34136;SDS011;20414;50.860;4.382;2022-07-09T12:19:25;0.85;;;0.73;;
34136;SDS011;20414;50.860;4.382;2022-07-09T12:21:51;0.40;;;0.40;;
34136;SDS011;20414;50.860;4.382;2022-07-09T12:24:19;1.60;;;0.70;;
34136;SDS011;20414;50.860;4.382;2022-07-09T12:26:45;2.25;;;0.82;;
34136;SDS011;20414;50.860;4.382;2022-07-09T12:29:11;0.75;;;0.60;;
34136;SDS011;20414;50.860;4.382;2022-07-09T12:31:36;0.60;;;0.50;;
34136;SDS011;20414;50.860;4.382;2022-07-09T12:34:03;0.85;;;0.65;;
34136;SDS011;20414;50.860;4.382;2022-07-09T12:36:30;0.95;;;0.70;;
34136;SDS011;20414;50.860;4.382;2022-07-09T12:38:57;1.50;;;0.80;;
34136;SDS011;20414;50.860;4.382;2022-07-09T12:41:23;1.10;;;0.70;;
34136;SDS011;20414;50.860;4.382;2022-07-09T12:43:49;1.38;;;0.60;;
34136;SDS011;20414;50.860;4.382;2022-07-09T12:46:14;1.80;;;0.77;;
34136;SDS011;20414;50.860;4.382;2022-07-09T12:48:40;5.03;;;0.63;;
34136;SDS011;20414;50.860;4.382;2022-07-09T12:51:06;2.47;;;0.65;;
34136;SDS011;20414;50.860;4.382;2022-07-09T12:53:31;0.90;;;0.63;;
34136;SDS011;20414;50.860;4.382;2022-07-09T12:55:57;0.73;;;0.63;;
34136;SDS011;20414;50.860;4.382;2022-07-09T12:58:23;1.08;;;0.68;;
34136;SDS011;20414;50.860;4.382;2022-07-09T13:00:48;1.20;;;0.70;;
34136;SDS011;20414;50.860;4.382;2022-07-09T13:03:14;0.65;;;0.50;;
34136;SDS011;20414;50.860;4.382;2022-07-09T13:05:41;1.08;;;0.52;;
34136;SDS011;20414;50.860;4.382;2022-07-09T13:08:07;0.60;;;0.60;;
34136;SDS011;20414;50.860;4.382;2022-07-09T13:10:32;0.50;;;0.50;;
34136;SDS011;20414;50.860;4.382;2022-07-09T13:12:58;0.98;;;0.70;;
34136;SDS011;20414;50.860;4.382;2022-07-09T13:15:23;0.77;;;0.70;;
34136;SDS011;20414;50.860;4.382;2022-07-09T13:17:49;1.10;;;0.70;;
34136;SDS011;20414;50.860;4.382;2022-07-09T13:20:15;0.88;;;0.70;;
34136;SDS011;20414;50.860;4.382;2022-07-09T13:22:42;0.80;;;0.70;;
34136;SDS011;20414;50.860;4.382;2022-07-09T13:25:08;0.65;;;0.60;;
34136;SDS011;20414;50.860;4.382;2022-07-09T13:27:34;0.55;;;0.40;;
34136;SDS011;20414;50.860;4.382;2022-07-09T13:30:00;0.65;;;0.60;;
34136;SDS011;20414;50.860;4.382;2022-07-09T13:32:25;1.00;;;0.57;;
34136;SDS011;20414;50.860;4.382;2022-07-09T13:34:52;0.70;;;0.70;;
34136;SDS011;20414;50.860;4.382;2022-07-09T13:37:19;0.80;;;0.63;;
34136;SDS011;20414;50.860;4.382;2022-07-09T13:39:45;0.50;;;0.50;;
34136;SDS011;20414;50.860;4.382;2022-07-09T13:42:11;2.20;;;0.73;;
34136;SDS011;20414;50.860;4.382;2022-07-09T13:44:37;0.55;;;0.55;;
34136;SDS011;20414;50.860;4.382;2022-07-09T13:47:04;0.85;;;0.60;;
34136;SDS011;20414;50.860;4.382;2022-07-09T13:49:29;0.98;;;0.50;;
34136;SDS011;20414;50.860;4.382;2022-07-09T13:51:55;0.93;;;0.60;;
34136;SDS011;20414;50.860;4.382;2022-07-09T13:54:22;0.60;;;0.60;;
34136;SDS011;20414;50.860;4.382;2022-07-09T13:56:48;1.10;;;0.50;;
34136;SDS011;20414;50.860;4.382;2022-07-09T13:59:14;0.80;;;0.55;;
34136;SDS011;20414;50.860;4.382;2022-07-09T14:01:40;0.50;;;0.50;;
34136;SDS011;20414;50.860;4.382;2022-07-09T14:04:05;0.70;;;0.68;;
34136;SDS011;20414;50.860;4.382;2022-07-09T14:06:31;0.98;;;0.60;;
34136;SDS011;20414;50.860;4.382;2022-07-09T14:08:57;0.90;;;0.50;;
34136;SDS011;20414;50.860;4.382;2022-07-09T14:11:23;0.60;;;0.60;;
34136;SDS011;20414;50.860;4.382;2022-07-09T14:13:49;0.70;;;0.60;;
34136;SDS011;20414;50.860;4.382;2022-07-09T14:16:17;0.93;;;0.75;;
34136;SDS011;20414;50.860;4.382;2022-07-09T14:18:43;0.68;;;0.55;;
34136;SDS011;20414;50.860;4.382;2022-07-09T14:21:09;1.08;;;0.55;;
34136;SDS011;20414;50.860;4.382;2022-07-09T14:23:34;0.40;;;0.40;;
34136;SDS011;20414;50.860;4.382;2022-07-09T14:26:00;0.50;;;0.50;;
34136;SDS011;20414;50.860;4.382;2022-07-09T14:28:26;0.50;;;0.50;;
34136;SDS011;20414;50.860;4.382;2022-07-09T14:30:52;0.55;;;0.55;;
34136;SDS011;20414;50.860;4.382;2022-07-09T14:33:18;0.95;;;0.60;;
34136;SDS011;20414;50.860;4.382;2022-07-09T14:35:43;0.88;;;0.60;;
34136;SDS011;20414;50.860;4.382;2022-07-09T14:38:09;0.90;;;0.60;;
34136;SDS011;20414;50.860;4.382;2022-07-09T14:40:35;1.02;;;0.50;;
34136;SDS011;20414;50.860;4.382;2022-07-09T14:43:01;0.63;;;0.60;;
34136;SDS011;20414;50.860;4.382;2022-07-09T14:45:27;0.75;;;0.63;;
34136;SDS011;20414;50.860;4.382;2022-07-09T14:47:53;1.38;;;0.80;;
34136;SDS011;20414;50.860;4.382;2022-07-09T14:50:19;0.95;;;0.60;;
34136;SDS011;20414;50.860;4.382;2022-07-09T14:52:45;0.40;;;0.38;;
34136;SDS011;20414;50.860;4.382;2022-07-09T14:55:13;1.15;;;0.60;;
34136;SDS011;20414;50.860;4.382;2022-07-09T14:57:39;0.70;;;0.50;;
34136;SDS011;20414;50.860;4.382;2022-07-09T15:00:05;0.50;;;0.50;;
34136;SDS011;20414;50.860;4.382;2022-07-09T15:02:31;0.82;;;0.50;;
34136;SDS011;20414;50.860;4.382;2022-07-09T15:04:57;0.60;;;0.60;;